Time;durP1;ratioP1;P1;durP2;ratioP2;P2;SDS_P1;SDS_P2;PMS_P1;PMS_P2;Temp;Humidity;BMP_temperature;BMP_pressure;BME280_temperature;BME280_humidity;BME280_pressure;Samples;Min_cycle;Max_cycle;Signal;HPM_P1;HPM_P2
2023/05/18 00:02:02;;;;;;;0.20;0.20;;;;;;;;;;5074471;28;20506;-74
2023/05/18 00:04:28;;;;;;;0.20;0.20;;;;;;;;;;5056669;28;20496;-73
2023/05/18 00:06:57;;;;;;;0.20;0.20;;;;;;;;;;5073041;28;20107;-74
2023/05/18 00:09:25;;;;;;;0.20;0.20;;;;;;;;;;5074427;28;20052;-73
2023/05/18 00:11:51;;;;;;;0.15;0.15;;;;;;;;;;5074481;28;20036;-74
2023/05/18 00:14:17;;;;;;;0.10;0.10;;;;;;;;;;5074190;28;20035;-73
2023/05/18 00:16:42;;;;;;;0.10;0.10;;;;;;;;;;5039833;28;20101;-73
2023/05/18 00:19:08;;;;;;;0.20;0.20;;;;;;;;;;5074182;28;20106;-73
2023/05/18 00:21:34;;;;;;;0.20;0.20;;;;;;;;;;5074687;28;20501;-73
2023/05/18 00:23:59;;;;;;;0.30;0.30;;;;;;;;;;5073965;28;20025;-74
2023/05/18 00:26:25;;;;;;;0.20;0.20;;;;;;;;;;5074297;28;20039;-73
2023/05/18 00:28:51;;;;;;;1.00;0.45;;;;;;;;;;5073601;28;20123;-73
2023/05/18 00:31:16;;;;;;;0.10;0.10;;;;;;;;;;5074157;28;20120;-73
2023/05/18 00:33:44;;;;;;;0.20;0.20;;;;;;;;;;5074010;28;20045;-73
2023/05/18 00:36:10;;;;;;;0.20;0.20;;;;;;;;;;5074082;28;20111;-75
2023/05/18 00:38:35;;;;;;;0.10;0.10;;;;;;;;;;5074078;28;20111;-74
2023/05/18 00:41:00;;;;;;;0.10;0.10;;;;;;;;;;5073241;28;20063;-75
2023/05/18 00:43:26;;;;;;;0.10;0.10;;;;;;;;;;5072735;28;20028;-74
2023/05/18 00:45:51;;;;;;;0.15;0.15;;;;;;;;;;5072258;28;20033;-74
2023/05/18 00:48:17;;;;;;;0.40;0.40;;;;;;;;;;5072432;28;20086;-73
2023/05/18 00:50:42;;;;;;;0.50;0.50;;;;;;;;;;5072017;28;20044;-74
2023/05/18 00:53:09;;;;;;;0.65;0.57;;;;;;;;;;5054094;28;20453;-74
2023/05/18 00:55:35;;;;;;;0.10;0.10;;;;;;;;;;5054604;28;20513;-75
2023/05/18 00:58:01;;;;;;;0.20;0.20;;;;;;;;;;5072912;28;20047;-75
2023/05/18 01:00:27;;;;;;;0.10;0.10;;;;;;;;;;5073558;28;20031;-76
2023/05/18 01:02:53;;;;;;;0.20;0.20;;;;;;;;;;5055670;28;20045;-76
2023/05/18 01:05:20;;;;;;;0.47;0.47;;;;;;;;;;5055410;28;20060;-76
2023/05/18 01:07:46;;;;;;;0.10;0.10;;;;;;;;;;5055699;28;20044;-76
2023/05/18 01:10:12;;;;;;;0.10;0.10;;;;;;;;;;5055534;28;20407;-76
2023/05/18 01:12:49;;;;;;;0.10;0.10;;;;;;;;;;5055615;28;20498;-76
2023/05/18 01:15:28;;;;;;;0.20;0.20;;;;;;;;;;5055844;28;20387;-76
2023/05/18 01:18:03;;;;;;;0.10;0.10;;;;;;;;;;5055334;28;20040;-76
2023/05/18 01:20:44;;;;;;;0.10;0.10;;;;;;;;;;5073157;28;20040;-76
2023/05/18 01:23:22;;;;;;;0.10;0.10;;;;;;;;;;5073398;28;20391;-76
2023/05/18 01:25:50;;;;;;;0.20;0.20;;;;;;;;;;5073228;28;20464;-76
2023/05/18 01:28:17;;;;;;;0.65;0.63;;;;;;;;;;5073014;28;20385;-76
2023/05/18 01:30:43;;;;;;;0.10;0.10;;;;;;;;;;5055075;28;20032;-76
2023/05/18 01:33:09;;;;;;;0.20;0.20;;;;;;;;;;5055224;28;20033;-76
2023/05/18 01:35:35;;;;;;;0.10;0.10;;;;;;;;;;5073267;28;20037;-75
2023/05/18 01:38:01;;;;;;;0.10;0.10;;;;;;;;;;5055102;28;20066;-75
2023/05/18 01:40:30;;;;;;;0.13;0.13;;;;;;;;;;5055016;28;20036;-76
2023/05/18 01:42:58;;;;;;;0.10;0.10;;;;;;;;;;5066253;28;20043;-74
2023/05/18 01:45:26;;;;;;;0.10;0.10;;;;;;;;;;5034951;28;20365;-74
2023/05/18 01:47:55;;;;;;;0.20;0.20;;;;;;;;;;5053032;28;20029;-73
2023/05/18 01:50:26;;;;;;;0.10;0.10;;;;;;;;;;5034943;28;20131;-73
2023/05/18 01:53:02;;;;;;;0.20;0.20;;;;;;;;;;5052431;28;20033;-74
2023/05/18 01:55:29;;;;;;;0.10;0.10;;;;;;;;;;5051944;28;20094;-73
2023/05/18 01:57:57;;;;;;;3.65;2.50;;;;;;;;;;5052925;28;20116;-74
2023/05/18 02:00:23;;;;;;;0.22;0.22;;;;;;;;;;5051224;28;20055;-74
2023/05/18 02:02:48;;;;;;;0.10;0.10;;;;;;;;;;5072023;28;20491;-74
2023/05/18 02:05:16;;;;;;;0.20;0.20;;;;;;;;;;5054603;28;20033;-74
2023/05/18 02:07:46;;;;;;;0.25;0.25;;;;;;;;;;5038171;28;20365;-74
2023/05/18 02:10:12;;;;;;;0.20;0.20;;;;;;;;;;5054545;28;20068;-74
2023/05/18 02:12:37;;;;;;;0.10;0.10;;;;;;;;;;5071923;28;20133;-74
2023/05/18 02:15:04;;;;;;;0.50;0.50;;;;;;;;;;5072398;28;20055;-75
2023/05/18 02:17:36;;;;;;;0.17;0.17;;;;;;;;;;5054634;28;20032;-74
2023/05/18 02:20:05;;;;;;;0.10;0.10;;;;;;;;;;5054596;28;20036;-75
2023/05/18 02:22:31;;;;;;;19.33;10.95;;;;;;;;;;5072446;28;20052;-75
2023/05/18 02:24:57;;;;;;;0.20;0.20;;;;;;;;;;5072364;28;20025;-74
2023/05/18 02:27:22;;;;;;;0.10;0.10;;;;;;;;;;5054197;28;20121;-74
2023/05/18 02:29:47;;;;;;;0.10;0.10;;;;;;;;;;5054321;28;20064;-75
2023/05/18 02:32:13;;;;;;;0.20;0.20;;;;;;;;;;5054170;28;20032;-75
2023/05/18 02:34:40;;;;;;;0.30;0.30;;;;;;;;;;5054184;28;20053;-76
2023/05/18 02:37:06;;;;;;;0.52;0.52;;;;;;;;;;5072031;28;20068;-76
2023/05/18 02:39:32;;;;;;;0.20;0.20;;;;;;;;;;5072254;28;20060;-76
2023/05/18 02:41:58;;;;;;;0.20;0.20;;;;;;;;;;5072193;28;20033;-76
2023/05/18 02:44:24;;;;;;;0.20;0.20;;;;;;;;;;5054267;28;20442;-76
2023/05/18 02:46:49;;;;;;;0.10;0.10;;;;;;;;;;5072247;28;20028;-75
2023/05/18 02:49:15;;;;;;;0.13;0.13;;;;;;;;;;5071999;28;20028;-76
2023/05/18 02:51:41;;;;;;;0.28;0.28;;;;;;;;;;5054226;28;20391;-76
2023/05/18 02:54:06;;;;;;;0.20;0.20;;;;;;;;;;5053866;28;20037;-76
2023/05/18 02:56:35;;;;;;;0.10;0.10;;;;;;;;;;5054190;28;20510;-74
2023/05/18 02:59:08;;;;;;;0.20;0.20;;;;;;;;;;5054216;28;20063;-74
2023/05/18 03:01:36;;;;;;;0.20;0.20;;;;;;;;;;5052491;28;20047;-76
2023/05/18 03:04:02;;;;;;;0.10;0.10;;;;;;;;;;5049073;28;20032;-76
2023/05/18 03:06:29;;;;;;;0.20;0.20;;;;;;;;;;5049690;28;20395;-76
2023/05/18 03:08:55;;;;;;;0.20;0.20;;;;;;;;;;5049970;28;20052;-73
2023/05/18 03:11:25;;;;;;;0.10;0.10;;;;;;;;;;5050208;28;20029;-73
2023/05/18 03:13:51;;;;;;;0.20;0.20;;;;;;;;;;5049791;28;20043;-74
2023/05/18 03:16:17;;;;;;;0.10;0.10;;;;;;;;;;5067427;28;20032;-74
2023/05/18 03:18:44;;;;;;;0.10;0.10;;;;;;;;;;5049623;28;20040;-73
2023/05/18 03:21:12;;;;;;;0.20;0.20;;;;;;;;;;5050226;28;20040;-73
2023/05/18 03:23:38;;;;;;;0.10;0.10;;;;;;;;;;5051865;28;20131;-73
2023/05/18 03:26:10;;;;;;;0.15;0.15;;;;;;;;;;5052899;28;20032;-73
2023/05/18 03:28:36;;;;;;;0.13;0.13;;;;;;;;;;5052916;28;20075;-74
2023/05/18 03:31:02;;;;;;;0.25;0.25;;;;;;;;;;5070954;28;20028;-73
2023/05/18 03:33:28;;;;;;;0.10;0.10;;;;;;;;;;5052753;28;20395;-73
2023/05/18 03:35:53;;;;;;;0.20;0.20;;;;;;;;;;5071438;28;20032;-76
2023/05/18 03:38:19;;;;;;;0.10;0.10;;;;;;;;;;5069116;28;20046;-75
2023/05/18 03:40:51;;;;;;;0.10;0.10;;;;;;;;;;5069459;28;20035;-75
2023/05/18 03:43:17;;;;;;;0.17;0.17;;;;;;;;;;5069375;28;20028;-76
2023/05/18 03:45:44;;;;;;;0.20;0.20;;;;;;;;;;5069628;28;20037;-76
2023/05/18 03:48:09;;;;;;;0.10;0.10;;;;;;;;;;5069257;28;20127;-76
2023/05/18 03:50:35;;;;;;;0.10;0.10;;;;;;;;;;5069158;28;20507;-76
2023/05/18 03:53:01;;;;;;;0.10;0.10;;;;;;;;;;5052600;28;20368;-76
2023/05/18 03:55:26;;;;;;;0.10;0.10;;;;;;;;;;5068133;28;20494;-75
2023/05/18 03:57:52;;;;;;;0.20;0.20;;;;;;;;;;5052506;28;20400;-76
2023/05/18 04:00:18;;;;;;;0.10;0.10;;;;;;;;;;5069940;28;20028;-76
2023/05/18 04:02:44;;;;;;;0.20;0.20;;;;;;;;;;5070184;28;20051;-75
2023/05/18 04:05:11;;;;;;;0.20;0.20;;;;;;;;;;5051382;28;20028;-76
2023/05/18 04:07:42;;;;;;;0.10;0.10;;;;;;;;;;5052282;28;20033;-74
2023/05/18 04:10:09;;;;;;;0.10;0.10;;;;;;;;;;5051598;28;20079;-74
2023/05/18 04:12:34;;;;;;;0.10;0.10;;;;;;;;;;5070168;28;20420;-74
2023/05/18 04:14:59;;;;;;;0.20;0.20;;;;;;;;;;5052247;28;20032;-74
2023/05/18 04:17:25;;;;;;;0.20;0.20;;;;;;;;;;5052366;28;20062;-74
2023/05/18 04:19:51;;;;;;;0.20;0.20;;;;;;;;;;5070494;28;20029;-75
2023/05/18 04:22:17;;;;;;;0.10;0.10;;;;;;;;;;5052420;28;20067;-76
2023/05/18 04:24:46;;;;;;;0.13;0.13;;;;;;;;;;5043861;28;20037;-74
2023/05/18 04:27:11;;;;;;;0.20;0.20;;;;;;;;;;5070450;28;20491;-74
2023/05/18 04:29:38;;;;;;;0.20;0.20;;;;;;;;;;5052617;28;20043;-74
2023/05/18 04:32:07;;;;;;;0.10;0.10;;;;;;;;;;5052256;28;20075;-74
2023/05/18 04:34:34;;;;;;;;;;;;;;;;;;5052277;28;20037;-74
2023/05/18 04:37:00;;;;;;;0.13;0.13;;;;;;;;;;5052157;28;19957;-72
2023/05/18 04:39:26;;;;;;;0.10;0.10;;;;;;;;;;5052255;28;20464;-77
2023/05/18 04:41:57;;;;;;;0.10;0.10;;;;;;;;;;5053987;28;20075;-78
2023/05/18 04:44:27;;;;;;;0.25;0.25;;;;;;;;;;5036218;28;20036;-75
2023/05/18 04:46:54;;;;;;;0.10;0.10;;;;;;;;;;5070631;28;20446;-75
2023/05/18 04:49:22;;;;;;;0.20;0.20;;;;;;;;;;5052000;28;20127;-75
2023/05/18 04:51:54;;;;;;;0.10;0.10;;;;;;;;;;5056766;28;20036;-75
2023/05/18 04:54:23;;;;;;;0.20;0.20;;;;;;;;;;5055799;28;20059;-75
2023/05/18 04:56:49;;;;;;;0.20;0.20;;;;;;;;;;5053478;28;20124;-75
2023/05/18 04:59:16;;;;;;;0.30;0.30;;;;;;;;;;5049608;28;20044;-75
2023/05/18 05:01:42;;;;;;;0.20;0.20;;;;;;;;;;5066004;28;20111;-73
2023/05/18 05:04:07;;;;;;;0.32;0.32;;;;;;;;;;5068072;28;20040;-74
2023/05/18 05:06:33;;;;;;;0.10;0.10;;;;;;;;;;5075379;28;20028;-74
2023/05/18 05:08:58;;;;;;;0.20;0.20;;;;;;;;;;5052102;28;20033;-74
2023/05/18 05:11:24;;;;;;;0.13;0.13;;;;;;;;;;5051189;28;20515;-73
2023/05/18 05:13:49;;;;;;;0.20;0.20;;;;;;;;;;5067080;28;20031;-75
2023/05/18 05:16:15;;;;;;;0.10;0.10;;;;;;;;;;5053362;28;20024;-74
2023/05/18 05:18:40;;;;;;;1.63;1.20;;;;;;;;;;5064283;28;20032;-74
2023/05/18 05:21:07;;;;;;;0.15;0.15;;;;;;;;;;5066088;28;20121;-73
2023/05/18 05:23:33;;;;;;;0.25;0.25;;;;;;;;;;5047024;28;20033;-75
2023/05/18 05:25:58;;;;;;;0.22;0.22;;;;;;;;;;5040771;28;20056;-74
2023/05/18 05:28:25;;;;;;;0.30;0.30;;;;;;;;;;5047287;28;20086;-74
2023/05/18 05:30:51;;;;;;;0.70;0.70;;;;;;;;;;5048065;28;20048;-74
2023/05/18 05:33:16;;;;;;;0.20;0.20;;;;;;;;;;5064045;28;20035;-74
2023/05/18 05:35:42;;;;;;;1.35;0.63;;;;;;;;;;5048381;28;20028;-74
2023/05/18 05:38:08;;;;;;;0.20;0.20;;;;;;;;;;5049932;28;20060;-73
2023/05/18 05:40:34;;;;;;;0.20;0.20;;;;;;;;;;5032808;28;20052;-75
2023/05/18 05:42:59;;;;;;;0.20;0.20;;;;;;;;;;5050264;28;20390;-75
2023/05/18 05:45:27;;;;;;;0.20;0.20;;;;;;;;;;5031975;28;20052;-75
2023/05/18 05:47:55;;;;;;;0.20;0.20;;;;;;;;;;5044217;28;20202;-75
2023/05/18 05:50:22;;;;;;;0.10;0.10;;;;;;;;;;5065946;28;20033;-75
2023/05/18 05:52:50;;;;;;;0.20;0.20;;;;;;;;;;5066650;28;20109;-75
2023/05/18 05:55:16;;;;;;;0.20;0.20;;;;;;;;;;5046330;28;20395;-75
2023/05/18 05:57:41;;;;;;;0.20;0.20;;;;;;;;;;5068258;28;20047;-77
2023/05/18 06:00:09;;;;;;;0.10;0.10;;;;;;;;;;5050193;28;20087;-74
2023/05/18 06:02:46;;;;;;;0.38;0.38;;;;;;;;;;5068403;28;20033;-77
2023/05/18 06:05:12;;;;;;;0.20;0.20;;;;;;;;;;5049757;28;20090;-74
2023/05/18 06:07:37;;;;;;;0.20;0.20;;;;;;;;;;5065615;28;20033;-74
2023/05/18 06:10:03;;;;;;;0.30;0.30;;;;;;;;;;5044783;28;20048;-73
2023/05/18 06:12:28;;;;;;;0.20;0.20;;;;;;;;;;5049559;28;20048;-85
2023/05/18 06:14:57;;;;;;;0.20;0.20;;;;;;;;;;5073438;28;20039;-83
2023/05/18 06:17:23;;;;;;;0.20;0.20;;;;;;;;;;5053525;28;20400;-80
2023/05/18 06:19:49;;;;;;;0.20;0.20;;;;;;;;;;5061518;28;20043;-81
2023/05/18 06:22:14;;;;;;;0.10;0.10;;;;;;;;;;5022173;28;20037;-76
2023/05/18 06:24:50;;;;;;;0.20;0.20;;;;;;;;;;5048111;28;20587;-80
2023/05/18 06:27:33;;;;;;;0.20;0.20;;;;;;;;;;5047897;28;20499;-79
2023/05/18 06:30:16;;;;;;;0.22;0.22;;;;;;;;;;5039307;28;20326;-81
2023/05/18 06:33:00;;;;;;;0.20;0.20;;;;;;;;;;5041643;28;20041;-82
2023/05/18 06:35:25;;;;;;;0.30;0.30;;;;;;;;;;5046522;28;20037;-84
2023/05/18 06:37:51;;;;;;;0.30;0.30;;;;;;;;;;5068859;28;20033;-81
2023/05/18 06:40:16;;;;;;;0.20;0.20;;;;;;;;;;5063345;28;20033;-83
2023/05/18 06:42:42;;;;;;;0.20;0.20;;;;;;;;;;5047354;28;20021;-80
2023/05/18 06:45:25;;;;;;;0.20;0.20;;;;;;;;;;5049673;28;20365;-82
2023/05/18 06:47:53;;;;;;;0.20;0.20;;;;;;;;;;5048617;28;20033;-80
2023/05/18 06:50:19;;;;;;;0.20;0.20;;;;;;;;;;5049398;28;20763;-80
2023/05/18 06:52:45;;;;;;;0.38;0.38;;;;;;;;;;5068169;28;20042;-78
2023/05/18 06:55:10;;;;;;;0.20;0.20;;;;;;;;;;5035204;28;20040;-82
2023/05/18 06:57:36;;;;;;;0.28;0.28;;;;;;;;;;5030592;28;20116;-76
2023/05/18 07:00:05;;;;;;;0.30;0.30;;;;;;;;;;5047333;28;20087;-80
2023/05/18 07:02:31;;;;;;;0.30;0.30;;;;;;;;;;5071327;28;20055;-76
2023/05/18 07:04:57;;;;;;;0.20;0.20;;;;;;;;;;5054627;28;20040;-79
2023/05/18 07:07:22;;;;;;;0.20;0.20;;;;;;;;;;5051583;28;20044;-82
2023/05/18 07:09:48;;;;;;;0.20;0.20;;;;;;;;;;5070154;28;20033;-82
2023/05/18 07:12:14;;;;;;;0.30;0.20;;;;;;;;;;5071508;28;20048;-89
2023/05/18 07:14:39;;;;;;;0.25;0.25;;;;;;;;;;5069336;28;20021;-89
2023/05/18 07:17:05;;;;;;;0.20;0.20;;;;;;;;;;5070425;28;20060;-90
2023/05/18 07:19:31;;;;;;;0.20;0.20;;;;;;;;;;5070822;28;20028;-80
2023/05/18 07:21:58;;;;;;;0.20;0.20;;;;;;;;;;5065617;28;20498;-88
2023/05/18 07:24:23;;;;;;;0.20;0.20;;;;;;;;;;5069819;28;20119;-85
2023/05/18 07:26:49;;;;;;;0.20;0.20;;;;;;;;;;5070854;28;20036;-81
2023/05/18 07:29:14;;;;;;;0.30;0.30;;;;;;;;;;5071024;28;20123;-80
2023/05/18 07:31:40;;;;;;;0.20;0.20;;;;;;;;;;5069640;28;20094;-84
2023/05/18 07:34:06;;;;;;;0.30;0.30;;;;;;;;;;5068305;28;20032;-84
2023/05/18 07:36:34;;;;;;;0.20;0.20;;;;;;;;;;5067723;28;20028;-80
2023/05/18 07:39:01;;;;;;;;;;;;;;;;;;5020658;28;20079;-85
2023/05/18 07:41:27;;;;;;;0.20;0.20;;;;;;;;;;5048497;28;19955;-84
2023/05/18 07:43:52;;;;;;;0.20;0.20;;;;;;;;;;5048026;28;20557;-84
2023/05/18 07:46:18;;;;;;;0.20;0.20;;;;;;;;;;5049176;28;20139;-86
2023/05/18 07:48:46;;;;;;;0.30;0.30;;;;;;;;;;5069955;28;20119;-87
2023/05/18 07:51:12;;;;;;;0.20;0.20;;;;;;;;;;5070015;28;20055;-86
2023/05/18 07:53:37;;;;;;;0.32;0.32;;;;;;;;;;5070085;28;20054;-86
2023/05/18 07:56:03;;;;;;;0.20;0.20;;;;;;;;;;5070031;28;20356;-88
2023/05/18 07:58:29;;;;;;;0.20;0.20;;;;;;;;;;5070362;28;20395;-85
2023/05/18 08:00:54;;;;;;;0.22;0.22;;;;;;;;;;5070094;28;20111;-89
2023/05/18 08:03:20;;;;;;;0.20;0.20;;;;;;;;;;5070163;28;20443;-87
2023/05/18 08:05:45;;;;;;;5.47;1.75;;;;;;;;;;5069476;28;20119;-87
2023/05/18 08:08:14;;;;;;;0.20;0.20;;;;;;;;;;5068793;28;20024;-83
2023/05/18 08:10:40;;;;;;;0.30;0.30;;;;;;;;;;5070245;28;20060;-80
2023/05/18 08:13:05;;;;;;;0.98;0.35;;;;;;;;;;5068856;28;20051;-83
2023/05/18 08:15:31;;;;;;;0.28;0.28;;;;;;;;;;5070522;28;20028;-83
2023/05/18 08:17:56;;;;;;;0.77;0.28;;;;;;;;;;5079397;28;20035;-78
2023/05/18 08:20:22;;;;;;;0.22;0.20;;;;;;;;;;5067712;28;20522;-83
2023/05/18 08:22:47;;;;;;;0.52;0.52;;;;;;;;;;5072374;28;20064;-78
2023/05/18 08:25:13;;;;;;;0.20;0.20;;;;;;;;;;5061685;28;20023;-85
2023/05/18 08:27:38;;;;;;;0.40;0.40;;;;;;;;;;5065202;28;20119;-84
2023/05/18 08:30:04;;;;;;;0.80;0.20;;;;;;;;;;5069846;28;20048;-79
2023/05/18 08:32:30;;;;;;;0.40;0.40;;;;;;;;;;5069790;28;20475;-79
2023/05/18 08:34:56;;;;;;;0.10;0.10;;;;;;;;;;5070448;28;20032;-74
2023/05/18 08:37:27;;;;;;;0.20;0.20;;;;;;;;;;5069569;28;20036;-74
2023/05/18 08:39:53;;;;;;;0.32;0.32;;;;;;;;;;5069484;28;20649;-73
2023/05/18 08:42:21;;;;;;;0.20;0.20;;;;;;;;;;5069054;28;20123;-73
2023/05/18 08:44:55;;;;;;;0.85;0.30;;;;;;;;;;5069758;28;20039;-73
2023/05/18 08:47:25;;;;;;;0.30;0.30;;;;;;;;;;5068812;28;20029;-73
2023/05/18 08:49:50;;;;;;;1.75;0.30;;;;;;;;;;5070313;28;20440;-73
2023/05/18 08:52:17;;;;;;;0.73;0.25;;;;;;;;;;5064129;28;20036;-73
2023/05/18 08:54:43;;;;;;;0.73;0.40;;;;;;;;;;5065860;28;20032;-74
2023/05/18 08:57:09;;;;;;;0.25;0.25;;;;;;;;;;5067632;28;20041;-73
2023/05/18 08:59:38;;;;;;;0.20;0.20;;;;;;;;;;5068402;28;20484;-74
2023/05/18 09:02:03;;;;;;;0.20;0.20;;;;;;;;;;5067355;28;20796;-73
2023/05/18 09:04:30;;;;;;;0.20;0.20;;;;;;;;;;5067972;28;20023;-74
2023/05/18 09:06:58;;;;;;;0.30;0.30;;;;;;;;;;5050474;28;20434;-72
2023/05/18 09:09:24;;;;;;;0.17;0.17;;;;;;;;;;5068587;28;20047;-74
2023/05/18 09:11:49;;;;;;;0.20;0.20;;;;;;;;;;5069426;28;20028;-73
2023/05/18 09:14:15;;;;;;;0.20;0.20;;;;;;;;;;5065577;28;20036;-73
2023/05/18 09:16:41;;;;;;;0.20;0.20;;;;;;;;;;5042266;28;20157;-72
2023/05/18 09:19:06;;;;;;;0.20;0.20;;;;;;;;;;5066755;28;20028;-72
2023/05/18 09:21:31;;;;;;;0.30;0.30;;;;;;;;;;5068792;28;20089;-73
2023/05/18 09:23:58;;;;;;;0.20;0.20;;;;;;;;;;5068785;28;20386;-73
2023/05/18 09:26:25;;;;;;;0.20;0.20;;;;;;;;;;5068469;28;20029;-73
2023/05/18 09:28:51;;;;;;;0.10;0.10;;;;;;;;;;5068309;28;20056;-75
2023/05/18 09:31:17;;;;;;;0.20;0.20;;;;;;;;;;5068666;28;20041;-73
2023/05/18 09:33:44;;;;;;;0.15;0.15;;;;;;;;;;5068734;28;20036;-73
2023/05/18 09:36:10;;;;;;;0.20;0.20;;;;;;;;;;5050616;28;20556;-73
2023/05/18 09:38:37;;;;;;;0.20;0.20;;;;;;;;;;5068086;28;20041;-73
2023/05/18 09:41:02;;;;;;;0.20;0.20;;;;;;;;;;5068429;28;20091;-74
2023/05/18 09:43:27;;;;;;;0.20;0.20;;;;;;;;;;5068488;28;20037;-74
2023/05/18 09:45:53;;;;;;;0.20;0.20;;;;;;;;;;5068191;28;20033;-74
2023/05/18 09:48:18;;;;;;;0.40;0.40;;;;;;;;;;5067884;28;20459;-75
2023/05/18 09:50:44;;;;;;;0.30;0.30;;;;;;;;;;5067762;28;20451;-75
2023/05/18 09:53:10;;;;;;;0.20;0.20;;;;;;;;;;5068514;28;20040;-75
2023/05/18 09:55:46;;;;;;;0.20;0.20;;;;;;;;;;5067956;28;20105;-74
2023/05/18 09:58:11;;;;;;;0.20;0.20;;;;;;;;;;5068244;28;20067;-75
2023/05/18 10:00:39;;;;;;;0.20;0.20;;;;;;;;;;5067894;28;20036;-74
2023/05/18 10:03:15;;;;;;;0.28;0.28;;;;;;;;;;5050110;28;20032;-73
2023/05/18 10:05:40;;;;;;;0.25;0.25;;;;;;;;;;5067968;28;20033;-73
2023/05/18 10:08:06;;;;;;;0.20;0.20;;;;;;;;;;5067891;28;20040;-73
2023/05/18 10:10:36;;;;;;;0.40;0.35;;;;;;;;;;5068179;28;20025;-73
2023/05/18 10:13:03;;;;;;;0.20;0.20;;;;;;;;;;5068554;28;20040;-73
2023/05/18 10:15:28;;;;;;;0.63;0.63;;;;;;;;;;5068116;28;20020;-72
2023/05/18 10:17:58;;;;;;;6.28;0.85;;;;;;;;;;5067876;28;20020;-73
2023/05/18 10:20:26;;;;;;;1.27;0.65;;;;;;;;;;5068006;28;20115;-73
2023/05/18 10:22:53;;;;;;;0.25;0.25;;;;;;;;;;5067888;28;20032;-73
2023/05/18 10:25:19;;;;;;;0.20;0.20;;;;;;;;;;5060899;28;20029;-74
2023/05/18 10:27:46;;;;;;;0.65;0.65;;;;;;;;;;5067227;28;20060;-73
2023/05/18 10:30:12;;;;;;;0.20;0.20;;;;;;;;;;5067615;28;20036;-73
2023/05/18 10:32:38;;;;;;;0.22;0.22;;;;;;;;;;5067472;28;20565;-73
2023/05/18 10:35:04;;;;;;;1.60;0.32;;;;;;;;;;5067549;28;20474;-74
2023/05/18 10:37:30;;;;;;;0.20;0.20;;;;;;;;;;5067924;28;20059;-73
2023/05/18 10:39:57;;;;;;;0.20;0.20;;;;;;;;;;5067970;28;20040;-73
2023/05/18 10:42:24;;;;;;;0.20;0.20;;;;;;;;;;5067404;28;20033;-74
2023/05/18 10:44:51;;;;;;;0.20;0.20;;;;;;;;;;5067965;28;20029;-73
2023/05/18 10:47:18;;;;;;;0.20;0.20;;;;;;;;;;5066303;28;20033;-72
2023/05/18 10:49:44;;;;;;;0.20;0.20;;;;;;;;;;5067745;28;20052;-73
2023/05/18 10:52:10;;;;;;;0.77;0.30;;;;;;;;;;5067719;28;20085;-73
2023/05/18 10:54:36;;;;;;;0.30;0.30;;;;;;;;;;5067667;28;20044;-72
2023/05/18 10:57:01;;;;;;;0.20;0.20;;;;;;;;;;5067468;28;20047;-73
2023/05/18 10:59:27;;;;;;;0.30;0.30;;;;;;;;;;5067505;28;20453;-73
2023/05/18 11:01:53;;;;;;;0.20;0.20;;;;;;;;;;5067648;28;20425;-73
2023/05/18 11:04:33;;;;;;;0.30;0.30;;;;;;;;;;5067882;28;20037;-73
2023/05/18 11:07:02;;;;;;;0.85;0.73;;;;;;;;;;5049627;28;20032;-72
2023/05/18 11:09:28;;;;;;;0.30;0.30;;;;;;;;;;5067143;28;20295;-73
2023/05/18 11:11:58;;;;;;;1.23;0.40;;;;;;;;;;5050245;28;20021;-73
2023/05/18 11:14:26;;;;;;;0.22;0.22;;;;;;;;;;5067686;28;20036;-72
2023/05/18 11:16:52;;;;;;;0.43;0.30;;;;;;;;;;5067331;28;20028;-73
2023/05/18 11:19:19;;;;;;;0.38;0.30;;;;;;;;;;5068571;28;20115;-73
2023/05/18 11:21:45;;;;;;;0.22;0.22;;;;;;;;;;5066595;28;20487;-72
2023/05/18 11:24:16;;;;;;;0.30;0.30;;;;;;;;;;5066704;28;20119;-72
2023/05/18 11:26:43;;;;;;;0.20;0.20;;;;;;;;;;5067401;28;20566;-73
2023/05/18 11:29:22;;;;;;;0.20;0.20;;;;;;;;;;5066877;28;20043;-73
2023/05/18 11:31:52;;;;;;;0.20;0.20;;;;;;;;;;5067608;28;20028;-73
2023/05/18 11:34:38;;;;;;;0.20;0.20;;;;;;;;;;5066920;28;20395;-73
2023/05/18 11:37:05;;;;;;;0.20;0.20;;;;;;;;;;5049034;28;20041;-73
2023/05/18 11:39:31;;;;;;;0.10;0.10;;;;;;;;;;5057053;28;20040;-72
2023/05/18 11:41:59;;;;;;;0.20;0.20;;;;;;;;;;5046692;28;20048;-72
2023/05/18 11:44:26;;;;;;;0.35;0.30;;;;;;;;;;5047465;28;20476;-73
2023/05/18 11:46:52;;;;;;;0.20;0.20;;;;;;;;;;5037458;28;20484;-72
2023/05/18 11:49:19;;;;;;;1.23;0.52;;;;;;;;;;5070370;28;20094;-74
2023/05/18 11:52:00;;;;;;;0.90;0.50;;;;;;;;;;5052080;28;20028;-73
2023/05/18 11:54:25;;;;;;;0.20;0.20;;;;;;;;;;5069534;28;20036;-74
2023/05/18 11:56:51;;;;;;;0.50;0.40;;;;;;;;;;5070516;28;20020;-73
2023/05/18 11:59:17;;;;;;;0.82;0.57;;;;;;;;;;5054707;28;20041;-73
2023/05/18 12:01:42;;;;;;;0.30;0.20;;;;;;;;;;5062656;28;20054;-72
2023/05/18 12:04:08;;;;;;;0.20;0.20;;;;;;;;;;5069862;28;20040;-74
2023/05/18 12:06:34;;;;;;;0.20;0.20;;;;;;;;;;5068854;28;20056;-73
2023/05/18 12:09:01;;;;;;;0.20;0.20;;;;;;;;;;5070206;28;20048;-75
2023/05/18 12:11:26;;;;;;;0.20;0.20;;;;;;;;;;5070211;28;20037;-72
2023/05/18 12:13:53;;;;;;;1.95;0.30;;;;;;;;;;5070037;28;20033;-73
2023/05/18 12:16:18;;;;;;;0.73;0.30;;;;;;;;;;5050215;28;20083;-73
2023/05/18 12:18:47;;;;;;;0.13;0.13;;;;;;;;;;5052132;28;20032;-73
2023/05/18 12:21:13;;;;;;;0.20;0.20;;;;;;;;;;5051865;28;20052;-74
2023/05/18 12:23:38;;;;;;;0.15;0.15;;;;;;;;;;5070089;28;20539;-73
2023/05/18 12:26:04;;;;;;;0.30;0.30;;;;;;;;;;5069681;28;20032;-73
2023/05/18 12:28:29;;;;;;;0.20;0.20;;;;;;;;;;5069929;28;20044;-75
2023/05/18 12:30:55;;;;;;;0.35;0.35;;;;;;;;;;5064804;28;20810;-75
2023/05/18 12:33:20;;;;;;;0.57;0.50;;;;;;;;;;5049850;28;20037;-73
2023/05/18 12:35:55;;;;;;;0.20;0.20;;;;;;;;;;5049526;28;20507;-75
2023/05/18 12:38:23;;;;;;;0.77;0.50;;;;;;;;;;5041817;28;20183;-75
2023/05/18 12:40:51;;;;;;;1.58;0.68;;;;;;;;;;5069633;28;20119;-74
2023/05/18 12:43:16;;;;;;;0.20;0.20;;;;;;;;;;5040999;28;20052;-75
2023/05/18 12:45:43;;;;;;;0.30;0.30;;;;;;;;;;5049549;28;20037;-75
2023/05/18 12:48:09;;;;;;;0.20;0.20;;;;;;;;;;5064092;28;20067;-75
2023/05/18 12:50:36;;;;;;;0.20;0.20;;;;;;;;;;5050725;28;20159;-75
2023/05/18 12:53:01;;;;;;;0.28;0.28;;;;;;;;;;5062964;28;20025;-75
2023/05/18 12:55:29;;;;;;;0.50;0.50;;;;;;;;;;5068927;28;20138;-74
2023/05/18 12:58:02;;;;;;;0.20;0.20;;;;;;;;;;5069560;28;20042;-75
2023/05/18 13:00:33;;;;;;;0.20;0.20;;;;;;;;;;5069051;28;20041;-74
2023/05/18 13:03:09;;;;;;;0.32;0.30;;;;;;;;;;5069277;28;20489;-74
2023/05/18 13:05:34;;;;;;;2.45;0.60;;;;;;;;;;5067722;28;20032;-74
2023/05/18 13:07:59;;;;;;;0.30;0.30;;;;;;;;;;5050309;28;20025;-74
2023/05/18 13:10:28;;;;;;;0.28;0.28;;;;;;;;;;5051319;28;20045;-76
2023/05/18 13:13:00;;;;;;;0.20;0.20;;;;;;;;;;5029409;28;20029;-77
2023/05/18 13:15:25;;;;;;;7.80;1.10;;;;;;;;;;5054777;28;20031;-77
2023/05/18 13:17:51;;;;;;;0.22;0.22;;;;;;;;;;5055217;28;20028;-76
2023/05/18 13:20:16;;;;;;;0.85;0.65;;;;;;;;;;5068292;28;20032;-75
2023/05/18 13:22:42;;;;;;;0.20;0.20;;;;;;;;;;5068303;28;20029;-75
2023/05/18 13:25:07;;;;;;;0.20;0.20;;;;;;;;;;5063354;28;20135;-76
2023/05/18 13:27:33;;;;;;;0.20;0.20;;;;;;;;;;5047102;28;20029;-75
2023/05/18 13:29:58;;;;;;;0.95;0.95;;;;;;;;;;5059394;28;20040;-75
2023/05/18 13:32:24;;;;;;;0.25;0.25;;;;;;;;;;5067241;28;20375;-75
2023/05/18 13:34:51;;;;;;;0.25;0.25;;;;;;;;;;5068498;28;20036;-75
2023/05/18 13:37:16;;;;;;;0.20;0.20;;;;;;;;;;5068460;28;20032;-75
2023/05/18 13:39:42;;;;;;;0.20;0.20;;;;;;;;;;5068353;28;20028;-76
2023/05/18 13:42:07;;;;;;;0.63;0.30;;;;;;;;;;5068267;28;20032;-75
2023/05/18 13:44:33;;;;;;;0.77;0.43;;;;;;;;;;5068744;28;20464;-76
2023/05/18 13:46:58;;;;;;;0.30;0.30;;;;;;;;;;5068924;28;20028;-76
2023/05/18 13:49:24;;;;;;;0.20;0.20;;;;;;;;;;5068485;28;20033;-74
2023/05/18 13:51:50;;;;;;;0.28;0.28;;;;;;;;;;5068793;28;20036;-74
2023/05/18 13:54:15;;;;;;;0.20;0.20;;;;;;;;;;5068633;28;20115;-75
2023/05/18 13:56:40;;;;;;;0.30;0.30;;;;;;;;;;5068480;28;20028;-76
2023/05/18 13:59:06;;;;;;;0.20;0.20;;;;;;;;;;5068285;28;20452;-77
2023/05/18 14:01:31;;;;;;;0.20;0.20;;;;;;;;;;5066119;28;20079;-76
2023/05/18 14:03:57;;;;;;;0.20;0.20;;;;;;;;;;5048902;28;20021;-75
2023/05/18 14:06:22;;;;;;;0.20;0.20;;;;;;;;;;5064472;28;20516;-75
2023/05/18 14:08:48;;;;;;;0.75;0.30;;;;;;;;;;5066996;28;20050;-77
2023/05/18 14:11:17;;;;;;;0.20;0.20;;;;;;;;;;5068581;28;20796;-76
2023/05/18 14:13:42;;;;;;;0.20;0.20;;;;;;;;;;5068602;28;20029;-74
2023/05/18 14:16:07;;;;;;;0.20;0.20;;;;;;;;;;5068420;28;20412;-75
2023/05/18 14:18:33;;;;;;;0.20;0.20;;;;;;;;;;5068191;28;20025;-75
2023/05/18 14:21:01;;;;;;;0.20;0.20;;;;;;;;;;5034218;28;20040;-75
2023/05/18 14:23:26;;;;;;;0.20;0.20;;;;;;;;;;5048526;28;20048;-76
2023/05/18 14:25:52;;;;;;;0.50;0.47;;;;;;;;;;5048590;28;20029;-75
2023/05/18 14:28:17;;;;;;;0.20;0.20;;;;;;;;;;5048402;28;20037;-75
2023/05/18 14:30:42;;;;;;;0.35;0.30;;;;;;;;;;5048272;28;20072;-75
2023/05/18 14:33:08;;;;;;;0.20;0.20;;;;;;;;;;5047867;28;20040;-75
2023/05/18 14:35:33;;;;;;;0.20;0.20;;;;;;;;;;5047361;28;20517;-75
2023/05/18 14:37:59;;;;;;;0.40;0.40;;;;;;;;;;5048390;28;20075;-75
2023/05/18 14:40:24;;;;;;;0.20;0.20;;;;;;;;;;5057794;28;20039;-74
2023/05/18 14:42:50;;;;;;;0.20;0.20;;;;;;;;;;5068169;28;20032;-76